sensor_id;sensor_type;location;lat;lon;timestamp;temperature;humidity
71837;DHT22;59686;51.716;7.016;2022-10-31T00:01:22;17.60;84.30
71837;DHT22;59686;51.716;7.016;2022-10-31T00:04:07;17.60;84.30
71837;DHT22;59686;51.716;7.016;2022-10-31T00:06:36;17.60;84.30
71837;DHT22;59686;51.716;7.016;2022-10-31T00:09:04;17.50;84.40
71837;DHT22;59686;51.716;7.016;2022-10-31T00:11:30;17.50;84.30
71837;DHT22;59686;51.716;7.016;2022-10-31T00:13:57;17.50;84.30
71837;DHT22;59686;51.716;7.016;2022-10-31T00:16:24;17.60;84.40
71837;DHT22;59686;51.716;7.016;2022-10-31T00:18:54;17.50;84.30
71837;DHT22;59686;51.716;7.016;2022-10-31T00:21:21;17.50;84.30
71837;DHT22;59686;51.716;7.016;2022-10-31T00:23:47;17.60;84.30
71837;DHT22;59686;51.716;7.016;2022-10-31T00:26:17;17.50;84.20
71837;DHT22;59686;51.716;7.016;2022-10-31T00:28:43;17.60;84.30
71837;DHT22;59686;51.716;7.016;2022-10-31T00:31:10;17.50;84.20
71837;DHT22;59686;51.716;7.016;2022-10-31T00:33:38;17.50;84.20
71837;DHT22;59686;51.716;7.016;2022-10-31T00:36:05;17.40;84.10
71837;DHT22;59686;51.716;7.016;2022-10-31T00:38:31;17.50;84.10
71837;DHT22;59686;51.716;7.016;2022-10-31T00:40:57;17.60;84.20
71837;DHT22;59686;51.716;7.016;2022-10-31T00:43:23;17.50;84.10
71837;DHT22;59686;51.716;7.016;2022-10-31T00:45:49;17.50;84.10
71837;DHT22;59686;51.716;7.016;2022-10-31T00:48:14;17.50;84.10
71837;DHT22;59686;51.716;7.016;2022-10-31T00:50:40;17.50;84.10
71837;DHT22;59686;51.716;7.016;2022-10-31T00:53:06;17.40;84.10
71837;DHT22;59686;51.716;7.016;2022-10-31T00:55:32;17.50;84.10
71837;DHT22;59686;51.716;7.016;2022-10-31T00:57:57;17.40;84.00
71837;DHT22;59686;51.716;7.016;2022-10-31T01:00:23;17.50;84.10
71837;DHT22;59686;51.716;7.016;2022-10-31T01:02:49;17.40;84.00
71837;DHT22;59686;51.716;7.016;2022-10-31T01:05:15;17.40;84.00
71837;DHT22;59686;51.716;7.016;2022-10-31T01:07:41;17.30;83.90
71837;DHT22;59686;51.716;7.016;2022-10-31T01:10:09;17.30;83.90
71837;DHT22;59686;51.716;7.016;2022-10-31T01:12:39;17.40;84.00
71837;DHT22;59686;51.716;7.016;2022-10-31T01:15:06;17.40;84.10
71837;DHT22;59686;51.716;7.016;2022-10-31T01:17:32;17.40;84.10
71837;DHT22;59686;51.716;7.016;2022-10-31T01:19:58;17.40;84.00
71837;DHT22;59686;51.716;7.016;2022-10-31T01:22:23;17.40;84.10
71837;DHT22;59686;51.716;7.016;2022-10-31T01:24:49;17.40;84.10
71837;DHT22;59686;51.716;7.016;2022-10-31T01:27:15;17.30;84.00
71837;DHT22;59686;51.716;7.016;2022-10-31T01:29:47;17.30;84.10
71837;DHT22;59686;51.716;7.016;2022-10-31T01:32:13;17.30;84.00
71837;DHT22;59686;51.716;7.016;2022-10-31T01:34:39;17.30;84.00
71837;DHT22;59686;51.716;7.016;2022-10-31T01:37:04;17.30;84.10
71837;DHT22;59686;51.716;7.016;2022-10-31T01:39:30;17.30;84.10
71837;DHT22;59686;51.716;7.016;2022-10-31T01:41:56;17.20;84.00
71837;DHT22;59686;51.716;7.016;2022-10-31T01:46:52;17.30;84.10
71837;DHT22;59686;51.716;7.016;2022-10-31T01:52:04;17.20;83.90
71837;DHT22;59686;51.716;7.016;2022-10-31T01:54:34;17.20;84.00
71837;DHT22;59686;51.716;7.016;2022-10-31T01:57:03;17.20;84.10
71837;DHT22;59686;51.716;7.016;2022-10-31T01:59:33;17.10;83.90
71837;DHT22;59686;51.716;7.016;2022-10-31T02:02:01;17.30;84.00
71837;DHT22;59686;51.716;7.016;2022-10-31T02:04:27;17.20;84.00
71837;DHT22;59686;51.716;7.016;2022-10-31T02:06:58;17.10;84.00
71837;DHT22;59686;51.716;7.016;2022-10-31T02:09:27;17.20;84.10
71837;DHT22;59686;51.716;7.016;2022-10-31T02:11:58;17.20;84.00
71837;DHT22;59686;51.716;7.016;2022-10-31T02:14:27;17.20;84.00
71837;DHT22;59686;51.716;7.016;2022-10-31T02:16:54;17.30;84.00
71837;DHT22;59686;51.716;7.016;2022-10-31T02:21:59;17.20;83.90
71837;DHT22;59686;51.716;7.016;2022-10-31T02:25:02;17.20;83.90
71837;DHT22;59686;51.716;7.016;2022-10-31T02:27:54;17.20;83.90
71837;DHT22;59686;51.716;7.016;2022-10-31T02:30:24;17.10;83.90
71837;DHT22;59686;51.716;7.016;2022-10-31T02:38:24;17.10;83.90
71837;DHT22;59686;51.716;7.016;2022-10-31T02:41:09;17.10;83.90
71837;DHT22;59686;51.716;7.016;2022-10-31T02:46:48;17.10;83.90
71837;DHT22;59686;51.716;7.016;2022-10-31T02:49:38;17.10;83.80
71837;DHT22;59686;51.716;7.016;2022-10-31T02:52:18;17.10;83.90
71837;DHT22;59686;51.716;7.016;2022-10-31T02:54:46;17.10;83.90
71837;DHT22;59686;51.716;7.016;2022-10-31T02:57:13;17.10;83.90
71837;DHT22;59686;51.716;7.016;2022-10-31T02:59:48;17.10;83.80
71837;DHT22;59686;51.716;7.016;2022-10-31T03:05:18;17.00;83.70
71837;DHT22;59686;51.716;7.016;2022-10-31T03:08:08;17.00;83.70
71837;DHT22;59686;51.716;7.016;2022-10-31T03:10:42;17.00;83.80
71837;DHT22;59686;51.716;7.016;2022-10-31T03:18:48;17.00;84.40
71837;DHT22;59686;51.716;7.016;2022-10-31T03:21:44;17.00;83.70
71837;DHT22;59686;51.716;7.016;2022-10-31T03:24:13;17.00;83.60
71837;DHT22;59686;51.716;7.016;2022-10-31T03:26:43;17.00;83.70
71837;DHT22;59686;51.716;7.016;2022-10-31T03:29:13;17.00;83.60
71837;DHT22;59686;51.716;7.016;2022-10-31T03:34:31;17.00;83.70
71837;DHT22;59686;51.716;7.016;2022-10-31T03:37:01;17.00;83.70
71837;DHT22;59686;51.716;7.016;2022-10-31T03:39:29;17.00;83.60
71837;DHT22;59686;51.716;7.016;2022-10-31T03:42:00;16.90;83.50
71837;DHT22;59686;51.716;7.016;2022-10-31T03:44:29;16.90;83.50
71837;DHT22;59686;51.716;7.016;2022-10-31T03:46:56;16.90;83.40
71837;DHT22;59686;51.716;7.016;2022-10-31T03:49:22;16.90;84.20
71837;DHT22;59686;51.716;7.016;2022-10-31T03:51:57;16.90;83.40
71837;DHT22;59686;51.716;7.016;2022-10-31T03:54:29;16.90;83.40
71837;DHT22;59686;51.716;7.016;2022-10-31T03:57:35;17.00;83.40
71837;DHT22;59686;51.716;7.016;2022-10-31T04:00:22;16.90;83.30
71837;DHT22;59686;51.716;7.016;2022-10-31T04:03:07;16.90;83.30
71837;DHT22;59686;51.716;7.016;2022-10-31T04:05:40;16.90;83.30
71837;DHT22;59686;51.716;7.016;2022-10-31T04:08:10;16.80;83.30
71837;DHT22;59686;51.716;7.016;2022-10-31T04:10:38;16.80;83.30
71837;DHT22;59686;51.716;7.016;2022-10-31T04:13:09;16.80;83.30
71837;DHT22;59686;51.716;7.016;2022-10-31T04:15:37;16.80;83.30
71837;DHT22;59686;51.716;7.016;2022-10-31T04:18:05;16.80;83.30
71837;DHT22;59686;51.716;7.016;2022-10-31T04:20:33;16.70;83.30
71837;DHT22;59686;51.716;7.016;2022-10-31T04:23:00;16.80;83.20
71837;DHT22;59686;51.716;7.016;2022-10-31T04:25:25;16.80;83.20
71837;DHT22;59686;51.716;7.016;2022-10-31T04:27:51;16.80;83.20
71837;DHT22;59686;51.716;7.016;2022-10-31T04:30:17;16.90;83.30
71837;DHT22;59686;51.716;7.016;2022-10-31T04:32:42;16.80;83.20
71837;DHT22;59686;51.716;7.016;2022-10-31T04:35:08;16.80;83.20
71837;DHT22;59686;51.716;7.016;2022-10-31T04:37:34;16.70;83.10
71837;DHT22;59686;51.716;7.016;2022-10-31T04:39:59;16.70;83.10
71837;DHT22;59686;51.716;7.016;2022-10-31T04:42:29;16.70;83.10
71837;DHT22;59686;51.716;7.016;2022-10-31T04:44:54;16.70;83.10
71837;DHT22;59686;51.716;7.016;2022-10-31T04:47:20;16.70;83.10
71837;DHT22;59686;51.716;7.016;2022-10-31T04:49:45;16.70;83.50
71837;DHT22;59686;51.716;7.016;2022-10-31T04:52:11;16.80;83.20
71837;DHT22;59686;51.716;7.016;2022-10-31T04:54:37;16.80;83.10
71837;DHT22;59686;51.716;7.016;2022-10-31T04:57:02;16.70;83.20
71837;DHT22;59686;51.716;7.016;2022-10-31T04:59:28;16.70;83.20
71837;DHT22;59686;51.716;7.016;2022-10-31T05:01:54;16.70;83.00
71837;DHT22;59686;51.716;7.016;2022-10-31T05:04:19;16.70;83.10
71837;DHT22;59686;51.716;7.016;2022-10-31T05:06:46;16.70;83.10
71837;DHT22;59686;51.716;7.016;2022-10-31T05:09:12;16.70;83.10
71837;DHT22;59686;51.716;7.016;2022-10-31T05:11:37;16.70;83.20
71837;DHT22;59686;51.716;7.016;2022-10-31T05:14:03;16.60;83.90
71837;DHT22;59686;51.716;7.016;2022-10-31T05:16:29;16.70;83.10
71837;DHT22;59686;51.716;7.016;2022-10-31T05:18:54;16.60;83.10
71837;DHT22;59686;51.716;7.016;2022-10-31T05:21:20;16.60;83.20
71837;DHT22;59686;51.716;7.016;2022-10-31T05:23:46;16.60;83.20
71837;DHT22;59686;51.716;7.016;2022-10-31T05:26:12;16.60;83.20
71837;DHT22;59686;51.716;7.016;2022-10-31T05:28:40;16.70;83.30
71837;DHT22;59686;51.716;7.016;2022-10-31T05:31:06;16.60;83.20
71837;DHT22;59686;51.716;7.016;2022-10-31T05:33:32;16.60;83.20
71837;DHT22;59686;51.716;7.016;2022-10-31T05:35:57;16.60;83.20
71837;DHT22;59686;51.716;7.016;2022-10-31T05:38:23;16.60;83.30
71837;DHT22;59686;51.716;7.016;2022-10-31T05:40:49;16.60;84.00
71837;DHT22;59686;51.716;7.016;2022-10-31T05:43:14;16.60;83.20
71837;DHT22;59686;51.716;7.016;2022-10-31T05:45:40;16.60;83.20
71837;DHT22;59686;51.716;7.016;2022-10-31T05:48:08;16.60;83.30
71837;DHT22;59686;51.716;7.016;2022-10-31T05:50:34;16.60;83.20
71837;DHT22;59686;51.716;7.016;2022-10-31T05:53:01;16.70;83.30
71837;DHT22;59686;51.716;7.016;2022-10-31T05:55:28;16.50;83.10
71837;DHT22;59686;51.716;7.016;2022-10-31T05:57:54;16.60;83.20
71837;DHT22;59686;51.716;7.016;2022-10-31T06:00:20;16.50;83.20
71837;DHT22;59686;51.716;7.016;2022-10-31T06:02:46;16.50;83.10
71837;DHT22;59686;51.716;7.016;2022-10-31T06:05:13;16.50;83.80
71837;DHT22;59686;51.716;7.016;2022-10-31T06:07:38;16.50;83.20
71837;DHT22;59686;51.716;7.016;2022-10-31T06:10:06;16.50;83.00
71837;DHT22;59686;51.716;7.016;2022-10-31T06:12:32;16.50;83.10
71837;DHT22;59686;51.716;7.016;2022-10-31T06:15:07;16.40;83.00
71837;DHT22;59686;51.716;7.016;2022-10-31T06:17:36;16.50;83.20
71837;DHT22;59686;51.716;7.016;2022-10-31T06:20:06;16.50;83.20
71837;DHT22;59686;51.716;7.016;2022-10-31T06:22:32;16.40;83.00
71837;DHT22;59686;51.716;7.016;2022-10-31T06:24:59;16.50;83.10
71837;DHT22;59686;51.716;7.016;2022-10-31T06:27:25;16.40;83.10
71837;DHT22;59686;51.716;7.016;2022-10-31T06:29:51;16.40;83.70
71837;DHT22;59686;51.716;7.016;2022-10-31T06:32:18;16.50;83.00
71837;DHT22;59686;51.716;7.016;2022-10-31T06:34:44;16.50;83.10
71837;DHT22;59686;51.716;7.016;2022-10-31T06:37:11;16.50;83.10
71837;DHT22;59686;51.716;7.016;2022-10-31T06:39:37;16.40;83.00
71837;DHT22;59686;51.716;7.016;2022-10-31T06:42:03;16.40;83.00
71837;DHT22;59686;51.716;7.016;2022-10-31T06:44:29;16.40;83.00
71837;DHT22;59686;51.716;7.016;2022-10-31T06:46:55;16.40;83.00
71837;DHT22;59686;51.716;7.016;2022-10-31T06:49:21;16.30;82.90
71837;DHT22;59686;51.716;7.016;2022-10-31T06:51:50;16.40;83.00
71837;DHT22;59686;51.716;7.016;2022-10-31T06:54:16;16.40;83.00
71837;DHT22;59686;51.716;7.016;2022-10-31T06:56:42;16.40;82.90
71837;DHT22;59686;51.716;7.016;2022-10-31T06:59:08;16.40;83.00
71837;DHT22;59686;51.716;7.016;2022-10-31T07:01:34;16.30;82.90
71837;DHT22;59686;51.716;7.016;2022-10-31T07:03:59;16.40;83.10
71837;DHT22;59686;51.716;7.016;2022-10-31T07:06:25;16.40;82.90
71837;DHT22;59686;51.716;7.016;2022-10-31T07:08:51;16.30;82.80
71837;DHT22;59686;51.716;7.016;2022-10-31T07:11:17;16.30;82.90
71837;DHT22;59686;51.716;7.016;2022-10-31T07:13:43;16.30;82.80
71837;DHT22;59686;51.716;7.016;2022-10-31T07:16:13;16.30;81.00
71837;DHT22;59686;51.716;7.016;2022-10-31T07:18:39;16.20;78.90
71837;DHT22;59686;51.716;7.016;2022-10-31T07:21:05;16.00;78.80
71837;DHT22;59686;51.716;7.016;2022-10-31T07:23:31;15.90;78.90
71837;DHT22;59686;51.716;7.016;2022-10-31T07:25:58;15.80;79.10
71837;DHT22;59686;51.716;7.016;2022-10-31T07:28:25;15.70;79.30
71837;DHT22;59686;51.716;7.016;2022-10-31T07:31:04;15.70;79.60
71837;DHT22;59686;51.716;7.016;2022-10-31T07:33:30;15.60;80.00
71837;DHT22;59686;51.716;7.016;2022-10-31T07:35:55;15.70;80.50
71837;DHT22;59686;51.716;7.016;2022-10-31T07:38:21;15.60;80.50
71837;DHT22;59686;51.716;7.016;2022-10-31T07:40:50;15.70;80.50
71837;DHT22;59686;51.716;7.016;2022-10-31T07:43:19;15.80;80.60
71837;DHT22;59686;51.716;7.016;2022-10-31T07:45:50;15.80;80.60
71837;DHT22;59686;51.716;7.016;2022-10-31T07:48:16;15.80;80.70
71837;DHT22;59686;51.716;7.016;2022-10-31T07:50:42;15.90;80.80
71837;DHT22;59686;51.716;7.016;2022-10-31T07:53:09;15.90;80.90
71837;DHT22;59686;51.716;7.016;2022-10-31T07:55:36;15.90;81.00
71837;DHT22;59686;51.716;7.016;2022-10-31T07:58:05;15.90;81.10
71837;DHT22;59686;51.716;7.016;2022-10-31T08:00:32;15.90;81.20
71837;DHT22;59686;51.716;7.016;2022-10-31T08:03:04;15.90;81.20
71837;DHT22;59686;51.716;7.016;2022-10-31T08:05:30;16.00;81.30
71837;DHT22;59686;51.716;7.016;2022-10-31T08:07:56;16.00;81.50
71837;DHT22;59686;51.716;7.016;2022-10-31T08:10:24;16.00;81.50
71837;DHT22;59686;51.716;7.016;2022-10-31T08:12:57;15.90;81.60
71837;DHT22;59686;51.716;7.016;2022-10-31T08:15:24;16.00;81.70
71837;DHT22;59686;51.716;7.016;2022-10-31T08:17:50;16.00;81.70
71837;DHT22;59686;51.716;7.016;2022-10-31T08:20:15;16.00;81.80
71837;DHT22;59686;51.716;7.016;2022-10-31T08:22:41;16.00;81.80
71837;DHT22;59686;51.716;7.016;2022-10-31T08:25:07;16.00;81.90
71837;DHT22;59686;51.716;7.016;2022-10-31T08:27:33;16.00;82.00
71837;DHT22;59686;51.716;7.016;2022-10-31T08:29:59;16.00;82.10
71837;DHT22;59686;51.716;7.016;2022-10-31T08:32:24;16.10;82.20
71837;DHT22;59686;51.716;7.016;2022-10-31T08:34:50;16.00;82.10
71837;DHT22;59686;51.716;7.016;2022-10-31T08:37:16;16.10;82.20
71837;DHT22;59686;51.716;7.016;2022-10-31T08:39:47;16.00;82.10
71837;DHT22;59686;51.716;7.016;2022-10-31T08:42:13;16.00;82.20
71837;DHT22;59686;51.716;7.016;2022-10-31T08:44:39;16.00;82.30
71837;DHT22;59686;51.716;7.016;2022-10-31T08:47:04;16.00;82.30
71837;DHT22;59686;51.716;7.016;2022-10-31T08:49:30;16.00;82.40
71837;DHT22;59686;51.716;7.016;2022-10-31T08:51:55;16.10;82.50
71837;DHT22;59686;51.716;7.016;2022-10-31T08:54:21;16.00;82.50
71837;DHT22;59686;51.716;7.016;2022-10-31T08:56:47;16.10;82.60
71837;DHT22;59686;51.716;7.016;2022-10-31T08:59:13;16.10;82.70
71837;DHT22;59686;51.716;7.016;2022-10-31T09:01:39;16.10;82.70
71837;DHT22;59686;51.716;7.016;2022-10-31T09:04:05;16.10;83.50
71837;DHT22;59686;51.716;7.016;2022-10-31T09:06:31;16.10;82.80
71837;DHT22;59686;51.716;7.016;2022-10-31T09:08:56;16.10;82.80
71837;DHT22;59686;51.716;7.016;2022-10-31T09:11:22;16.00;82.90
71837;DHT22;59686;51.716;7.016;2022-10-31T09:13:47;16.00;82.90
71837;DHT22;59686;51.716;7.016;2022-10-31T09:16:13;16.10;83.00
71837;DHT22;59686;51.716;7.016;2022-10-31T09:18:39;16.10;83.80
71837;DHT22;59686;51.716;7.016;2022-10-31T09:21:04;16.10;83.10
71837;DHT22;59686;51.716;7.016;2022-10-31T09:23:30;16.10;83.10
71837;DHT22;59686;51.716;7.016;2022-10-31T09:25:59;16.10;83.10
71837;DHT22;59686;51.716;7.016;2022-10-31T09:28:25;16.00;83.10
71837;DHT22;59686;51.716;7.016;2022-10-31T09:30:53;16.00;83.20
71837;DHT22;59686;51.716;7.016;2022-10-31T09:33:21;16.10;83.20
71837;DHT22;59686;51.716;7.016;2022-10-31T09:35:47;16.10;83.30
71837;DHT22;59686;51.716;7.016;2022-10-31T09:38:18;16.10;83.30
71837;DHT22;59686;51.716;7.016;2022-10-31T09:43:43;16.10;83.40
71837;DHT22;59686;51.716;7.016;2022-10-31T09:46:24;16.10;83.50
71837;DHT22;59686;51.716;7.016;2022-10-31T09:51:39;16.10;83.70
71837;DHT22;59686;51.716;7.016;2022-10-31T09:56:48;16.10;83.70
71837;DHT22;59686;51.716;7.016;2022-10-31T09:59:28;16.00;83.50
71837;DHT22;59686;51.716;7.016;2022-10-31T10:02:06;16.10;84.40
71837;DHT22;59686;51.716;7.016;2022-10-31T10:07:19;16.20;83.80
71837;DHT22;59686;51.716;7.016;2022-10-31T10:09:54;16.10;83.70
71837;DHT22;59686;51.716;7.016;2022-10-31T10:12:47;16.00;83.70
71837;DHT22;59686;51.716;7.016;2022-10-31T10:21:09;16.20;84.10
71837;DHT22;59686;51.716;7.016;2022-10-31T10:24:07;16.10;84.00
71837;DHT22;59686;51.716;7.016;2022-10-31T10:26:37;16.20;84.10
71837;DHT22;59686;51.716;7.016;2022-10-31T10:31:53;16.10;84.10
71837;DHT22;59686;51.716;7.016;2022-10-31T10:34:25;16.20;84.00
71837;DHT22;59686;51.716;7.016;2022-10-31T10:37:03;16.20;84.00
71837;DHT22;59686;51.716;7.016;2022-10-31T10:39:35;16.20;84.00
71837;DHT22;59686;51.716;7.016;2022-10-31T10:42:09;16.20;83.90
71837;DHT22;59686;51.716;7.016;2022-10-31T10:44:57;16.20;83.80
71837;DHT22;59686;51.716;7.016;2022-10-31T10:50:31;16.30;83.70
71837;DHT22;59686;51.716;7.016;2022-10-31T10:56:04;16.30;84.50
71837;DHT22;59686;51.716;7.016;2022-10-31T10:58:34;16.30;84.60
71837;DHT22;59686;51.716;7.016;2022-10-31T11:01:14;16.30;83.80
71837;DHT22;59686;51.716;7.016;2022-10-31T11:03:41;16.30;83.80
71837;DHT22;59686;51.716;7.016;2022-10-31T11:06:22;16.30;83.90
71837;DHT22;59686;51.716;7.016;2022-10-31T11:08:51;16.30;83.90
71837;DHT22;59686;51.716;7.016;2022-10-31T11:13:45;16.30;83.90
71837;DHT22;59686;51.716;7.016;2022-10-31T11:16:25;16.30;84.00
71837;DHT22;59686;51.716;7.016;2022-10-31T11:18:52;16.30;84.10
71837;DHT22;59686;51.716;7.016;2022-10-31T11:21:29;16.40;84.10
71837;DHT22;59686;51.716;7.016;2022-10-31T11:26:37;16.30;84.20
71837;DHT22;59686;51.716;7.016;2022-10-31T11:29:04;16.40;84.30
71837;DHT22;59686;51.716;7.016;2022-10-31T11:31:35;16.40;84.20
71837;DHT22;59686;51.716;7.016;2022-10-31T11:34:04;16.30;84.10
71837;DHT22;59686;51.716;7.016;2022-10-31T11:36:37;16.40;84.20
71837;DHT22;59686;51.716;7.016;2022-10-31T11:39:05;16.40;84.10
71837;DHT22;59686;51.716;7.016;2022-10-31T11:41:38;16.40;84.10
71837;DHT22;59686;51.716;7.016;2022-10-31T11:44:15;16.40;84.10
71837;DHT22;59686;51.716;7.016;2022-10-31T11:46:50;16.40;84.10
71837;DHT22;59686;51.716;7.016;2022-10-31T11:49:37;16.40;84.20
71837;DHT22;59686;51.716;7.016;2022-10-31T11:52:28;16.40;84.20
71837;DHT22;59686;51.716;7.016;2022-10-31T11:55:01;16.40;84.20
71837;DHT22;59686;51.716;7.016;2022-10-31T12:00:31;16.40;84.30
71837;DHT22;59686;51.716;7.016;2022-10-31T12:06:07;16.40;84.30
71837;DHT22;59686;51.716;7.016;2022-10-31T12:08:36;16.40;84.40
71837;DHT22;59686;51.716;7.016;2022-10-31T12:17:14;16.40;84.50
71837;DHT22;59686;51.716;7.016;2022-10-31T12:26:05;16.40;84.70
71837;DHT22;59686;51.716;7.016;2022-10-31T12:37:39;16.40;84.50
71837;DHT22;59686;51.716;7.016;2022-10-31T12:46:41;16.40;84.50
71837;DHT22;59686;51.716;7.016;2022-10-31T12:49:21;16.50;84.70
71837;DHT22;59686;51.716;7.016;2022-10-31T12:52:16;16.40;84.60
71837;DHT22;59686;51.716;7.016;2022-10-31T12:57:39;16.50;84.70
71837;DHT22;59686;51.716;7.016;2022-10-31T13:00:16;16.40;84.70
71837;DHT22;59686;51.716;7.016;2022-10-31T13:05:26;16.50;84.70
71837;DHT22;59686;51.716;7.016;2022-10-31T13:08:18;16.40;84.70
71837;DHT22;59686;51.716;7.016;2022-10-31T13:10:49;16.50;84.80
71837;DHT22;59686;51.716;7.016;2022-10-31T13:16:10;16.50;84.80
71837;DHT22;59686;51.716;7.016;2022-10-31T13:19:03;16.50;84.80
71837;DHT22;59686;51.716;7.016;2022-10-31T13:21:32;16.50;84.80
71837;DHT22;59686;51.716;7.016;2022-10-31T13:24:04;16.50;84.80
71837;DHT22;59686;51.716;7.016;2022-10-31T13:26:37;16.50;84.80
71837;DHT22;59686;51.716;7.016;2022-10-31T13:32:04;16.60;85.00
71837;DHT22;59686;51.716;7.016;2022-10-31T13:34:46;16.60;85.00
71837;DHT22;59686;51.716;7.016;2022-10-31T13:37:38;16.60;85.00
71837;DHT22;59686;51.716;7.016;2022-10-31T13:42:50;16.60;85.10
71837;DHT22;59686;51.716;7.016;2022-10-31T13:45:20;16.60;85.10
71837;DHT22;59686;51.716;7.016;2022-10-31T13:50:39;16.60;85.20
71837;DHT22;59686;51.716;7.016;2022-10-31T13:55:47;16.60;85.30
71837;DHT22;59686;51.716;7.016;2022-10-31T13:58:28;16.60;85.30
71837;DHT22;59686;51.716;7.016;2022-10-31T14:01:12;16.60;85.30
71837;DHT22;59686;51.716;7.016;2022-10-31T14:03:40;16.60;85.30
71837;DHT22;59686;51.716;7.016;2022-10-31T14:06:09;16.60;85.40
71837;DHT22;59686;51.716;7.016;2022-10-31T14:08:37;16.60;85.30
71837;DHT22;59686;51.716;7.016;2022-10-31T14:11:22;16.60;85.40
71837;DHT22;59686;51.716;7.016;2022-10-31T14:13:49;16.60;85.30
71837;DHT22;59686;51.716;7.016;2022-10-31T14:16:24;16.60;85.40
71837;DHT22;59686;51.716;7.016;2022-10-31T14:19:13;16.60;85.50
71837;DHT22;59686;51.716;7.016;2022-10-31T14:21:45;16.60;85.40
71837;DHT22;59686;51.716;7.016;2022-10-31T14:24:29;16.60;85.40
71837;DHT22;59686;51.716;7.016;2022-10-31T14:29:44;16.70;85.60
71837;DHT22;59686;51.716;7.016;2022-10-31T14:34:52;16.70;85.60
71837;DHT22;59686;51.716;7.016;2022-10-31T14:43:34;16.70;85.60
71837;DHT22;59686;51.716;7.016;2022-10-31T14:49:20;16.70;85.70
71837;DHT22;59686;51.716;7.016;2022-10-31T14:51:50;16.70;85.70
71837;DHT22;59686;51.716;7.016;2022-10-31T14:54:27;16.70;85.90
71837;DHT22;59686;51.716;7.016;2022-10-31T14:57:05;16.70;85.90
71837;DHT22;59686;51.716;7.016;2022-10-31T14:59:35;16.70;85.80
71837;DHT22;59686;51.716;7.016;2022-10-31T15:05:11;16.70;86.40
71837;DHT22;59686;51.716;7.016;2022-10-31T15:07:51;16.70;85.90
71837;DHT22;59686;51.716;7.016;2022-10-31T15:10:24;16.70;85.90
71837;DHT22;59686;51.716;7.016;2022-10-31T15:12:51;16.70;86.00
71837;DHT22;59686;51.716;7.016;2022-10-31T15:15:20;16.70;86.00
71837;DHT22;59686;51.716;7.016;2022-10-31T15:17:55;16.70;86.10
71837;DHT22;59686;51.716;7.016;2022-10-31T15:20:24;16.70;86.20
71837;DHT22;59686;51.716;7.016;2022-10-31T15:22:51;16.70;86.80
71837;DHT22;59686;51.716;7.016;2022-10-31T15:25:19;16.70;86.10
71837;DHT22;59686;51.716;7.016;2022-10-31T15:27:49;16.80;86.20
71837;DHT22;59686;51.716;7.016;2022-10-31T15:30:17;16.70;86.20
71837;DHT22;59686;51.716;7.016;2022-10-31T15:32:45;16.70;86.20
71837;DHT22;59686;51.716;7.016;2022-10-31T15:35:23;16.70;86.30
71837;DHT22;59686;51.716;7.016;2022-10-31T15:37:51;16.70;86.30
71837;DHT22;59686;51.716;7.016;2022-10-31T15:40:19;16.70;86.10
71837;DHT22;59686;51.716;7.016;2022-10-31T15:43:02;16.70;86.30
71837;DHT22;59686;51.716;7.016;2022-10-31T15:45:34;16.70;86.30
71837;DHT22;59686;51.716;7.016;2022-10-31T15:48:04;16.70;86.40
71837;DHT22;59686;51.716;7.016;2022-10-31T15:50:39;16.70;86.20
71837;DHT22;59686;51.716;7.016;2022-10-31T15:56:00;16.70;86.40
71837;DHT22;59686;51.716;7.016;2022-10-31T15:58:39;16.70;86.40
71837;DHT22;59686;51.716;7.016;2022-10-31T16:01:21;16.70;86.40
71837;DHT22;59686;51.716;7.016;2022-10-31T16:06:35;16.70;86.40
71837;DHT22;59686;51.716;7.016;2022-10-31T16:09:21;16.70;87.30
71837;DHT22;59686;51.716;7.016;2022-10-31T16:11:47;16.70;86.50
71837;DHT22;59686;51.716;7.016;2022-10-31T16:14:23;16.80;86.60
71837;DHT22;59686;51.716;7.016;2022-10-31T16:16:52;16.70;86.60
71837;DHT22;59686;51.716;7.016;2022-10-31T16:19:34;16.70;86.70
71837;DHT22;59686;51.716;7.016;2022-10-31T16:22:38;16.70;86.70
71837;DHT22;59686;51.716;7.016;2022-10-31T16:25:11;16.70;86.80
71837;DHT22;59686;51.716;7.016;2022-10-31T16:27:38;16.70;86.80
71837;DHT22;59686;51.716;7.016;2022-10-31T16:33:10;16.70;86.80
71837;DHT22;59686;51.716;7.016;2022-10-31T16:35:45;16.70;86.90
71837;DHT22;59686;51.716;7.016;2022-10-31T16:38:11;16.70;86.90
71837;DHT22;59686;51.716;7.016;2022-10-31T16:40:40;16.70;86.90
71837;DHT22;59686;51.716;7.016;2022-10-31T16:43:15;16.80;87.00
71837;DHT22;59686;51.716;7.016;2022-10-31T16:45:52;16.60;86.90
71837;DHT22;59686;51.716;7.016;2022-10-31T16:48:22;16.70;86.90
71837;DHT22;59686;51.716;7.016;2022-10-31T16:50:49;16.70;87.00
71837;DHT22;59686;51.716;7.016;2022-10-31T16:53:16;16.70;87.10
71837;DHT22;59686;51.716;7.016;2022-10-31T16:55:54;16.70;87.10
71837;DHT22;59686;51.716;7.016;2022-10-31T16:58:32;16.80;87.20
71837;DHT22;59686;51.716;7.016;2022-10-31T17:01:03;16.70;87.10
71837;DHT22;59686;51.716;7.016;2022-10-31T17:03:29;16.70;87.20
71837;DHT22;59686;51.716;7.016;2022-10-31T17:05:56;16.70;87.10
71837;DHT22;59686;51.716;7.016;2022-10-31T17:08:22;16.70;87.10
71837;DHT22;59686;51.716;7.016;2022-10-31T17:10:51;16.70;87.20
71837;DHT22;59686;51.716;7.016;2022-10-31T17:13:23;16.80;87.20
71837;DHT22;59686;51.716;7.016;2022-10-31T17:15:51;16.80;87.30
71837;DHT22;59686;51.716;7.016;2022-10-31T17:18:18;16.80;87.30
71837;DHT22;59686;51.716;7.016;2022-10-31T17:20:44;16.80;87.40
71837;DHT22;59686;51.716;7.016;2022-10-31T17:23:12;16.70;87.30
71837;DHT22;59686;51.716;7.016;2022-10-31T17:25:38;16.70;87.30
71837;DHT22;59686;51.716;7.016;2022-10-31T17:28:07;16.80;87.40
71837;DHT22;59686;51.716;7.016;2022-10-31T17:30:37;16.70;87.30
71837;DHT22;59686;51.716;7.016;2022-10-31T17:33:03;16.70;87.30
71837;DHT22;59686;51.716;7.016;2022-10-31T17:35:28;16.70;87.30
71837;DHT22;59686;51.716;7.016;2022-10-31T17:37:55;16.70;87.30
71837;DHT22;59686;51.716;7.016;2022-10-31T17:40:21;16.80;87.30
71837;DHT22;59686;51.716;7.016;2022-10-31T17:42:51;16.70;87.30
71837;DHT22;59686;51.716;7.016;2022-10-31T17:45:18;16.70;87.30
71837;DHT22;59686;51.716;7.016;2022-10-31T17:47:49;16.70;87.30
71837;DHT22;59686;51.716;7.016;2022-10-31T17:50:25;16.80;87.30
71837;DHT22;59686;51.716;7.016;2022-10-31T17:52:51;16.70;87.20
71837;DHT22;59686;51.716;7.016;2022-10-31T17:55:18;16.70;87.30
71837;DHT22;59686;51.716;7.016;2022-10-31T17:57:44;16.70;87.30
71837;DHT22;59686;51.716;7.016;2022-10-31T18:00:16;16.70;87.30
71837;DHT22;59686;51.716;7.016;2022-10-31T18:02:42;16.80;87.30
71837;DHT22;59686;51.716;7.016;2022-10-31T18:05:08;16.80;87.30
71837;DHT22;59686;51.716;7.016;2022-10-31T18:07:34;16.70;87.30